Time;durP1;ratioP1;P1;durP2;ratioP2;P2;SDS_P1;SDS_P2;PMS_P1;PMS_P2;Temp;Humidity;BMP_temperature;BMP_pressure;BME280_temperature;BME280_humidity;BME280_pressure;Samples;Min_cycle;Max_cycle;Signal;HPM_P1;HPM_P2
2021/12/13 00:01:18;;;;;;;;;;;17.60;62.40;;;;;;25526274;22;76645;-88
2021/12/13 00:11:31;;;;;;;;;;;17.60;62.50;;;;;;25525048;22;76043;-88
2021/12/13 00:21:43;;;;;;;;;;;17.60;62.60;;;;;;25536003;22;76970;-88
2021/12/13 00:31:48;;;;;;;;;;;17.50;62.70;;;;;;25526056;22;74807;-88
2021/12/13 00:41:50;;;;;;;;;;;17.50;62.90;;;;;;25524589;22;75485;-89
2021/12/13 00:51:52;;;;;;;;;;;17.50;62.90;;;;;;25525921;22;75920;-89
2021/12/13 01:01:56;;;;;;;;;;;17.50;62.90;;;;;;25523887;22;74905;-89
2021/12/13 01:11:59;;;;;;;;;;;17.50;63.20;;;;;;25524733;22;76015;-90
2021/12/13 01:22:28;;;;;;;;;;;17.60;63.40;;;;;;25525033;22;76107;-86
2021/12/13 01:32:40;;;;;;;;;;;17.70;63.50;;;;;;25548048;22;74784;-87
2021/12/13 01:42:43;;;;;;;;;;;17.80;63.60;;;;;;25520631;22;76974;-86
2021/12/13 01:52:47;;;;;;;;;;;17.80;63.60;;;;;;25522504;22;76830;-85
2021/12/13 02:02:50;;;;;;;;;;;17.80;63.80;;;;;;25524088;22;75769;-85
2021/12/13 02:12:58;;;;;;;;;;;17.70;63.90;;;;;;25525975;22;76023;-85
2021/12/13 02:23:00;;;;;;;;;;;17.70;64.10;;;;;;25525344;22;75883;-85
2021/12/13 02:33:06;;;;;;;;;;;17.60;64.00;;;;;;25526320;22;75341;-86
2021/12/13 02:43:10;;;;;;;;;;;17.60;64.10;;;;;;25524626;22;76196;-87
2021/12/13 02:53:16;;;;;;;;;;;17.60;64.10;;;;;;25524391;22;77062;-87
2021/12/13 03:03:22;;;;;;;;;;;17.50;64.10;;;;;;25523908;22;75766;-85
2021/12/13 03:13:24;;;;;;;;;;;17.50;64.10;;;;;;25522312;22;75739;-85
2021/12/13 03:23:59;;;;;;;;;;;17.50;64.20;;;;;;25526252;22;78194;-86
2021/12/13 03:34:22;;;;;;;;;;;17.40;64.30;;;;;;25527220;22;74594;-85
2021/12/13 03:44:33;;;;;;;;;;;17.40;64.30;;;;;;25525092;22;77202;-86
2021/12/13 03:54:42;;;;;;;;;;;17.40;64.40;;;;;;25524986;22;75967;-86
2021/12/13 04:04:53;;;;;;;;;;;17.30;64.30;;;;;;25525727;22;77325;-87
2021/12/13 04:15:11;;;;;;;;;;;17.30;64.20;;;;;;25522514;22;75884;-87
2021/12/13 04:25:19;;;;;;;;;;;17.30;64.20;;;;;;25523594;22;75838;-86
2021/12/13 04:35:27;;;;;;;;;;;17.30;64.20;;;;;;25522942;22;76986;-88
2021/12/13 04:45:34;;;;;;;;;;;17.30;64.00;;;;;;25529336;22;74768;-87
2021/12/13 04:55:46;;;;;;;;;;;17.30;64.50;;;;;;25527635;22;76036;-86
2021/12/13 05:05:54;;;;;;;;;;;17.40;63.70;;;;;;25529153;22;78683;-84
2021/12/13 05:16:16;;;;;;;;;;;17.50;63.80;;;;;;25530116;22;74764;-85
2021/12/13 05:26:32;;;;;;;;;;;17.50;68.90;;;;;;25489640;22;77605;-88
2021/12/13 05:37:00;;;;;;;;;;;17.50;68.30;;;;;;25627750;22;75858;-88
2021/12/13 05:47:24;;;;;;;;;;;17.60;68.10;;;;;;25638053;22;78698;-88
2021/12/13 05:57:40;;;;;;;;;;;17.60;67.80;;;;;;25664512;22;78817;-88
2021/12/13 06:07:55;;;;;;;;;;;17.60;67.30;;;;;;25659760;22;76793;-86
2021/12/13 06:18:04;;;;;;;;;;;17.50;66.90;;;;;;25657271;22;76665;-87
2021/12/13 06:28:22;;;;;;;;;;;17.50;66.80;;;;;;25668337;22;76955;-91
2021/12/13 06:38:31;;;;;;;;;;;17.40;66.70;;;;;;25667834;22;77758;-86
2021/12/13 06:48:38;;;;;;;;;;;17.40;66.50;;;;;;25657271;22;78065;-88
2021/12/13 06:58:47;;;;;;;;;;;17.40;66.30;;;;;;25655471;22;78205;-87
2021/12/13 07:09:11;;;;;;;;;;;17.30;66.10;;;;;;25656847;22;78100;-88
2021/12/13 07:19:33;;;;;;;;;;;17.30;65.90;;;;;;25657406;22;74919;-85
2021/12/13 07:30:35;;;;;;;;;;;;;;;;;;;;;
2021/12/13 07:41:12;;;;;;;;;;;17.20;65.70;;;;;;25648614;22;77849;-90
2021/12/13 07:51:39;;;;;;;;;;;17.20;65.30;;;;;;25662764;22;77597;-85
2021/12/13 08:02:32;;;;;;;;;;;;;;;;;;;;;
2021/12/13 08:22:50;;;;;;;;;;;17.30;64.70;;;;;;25776831;22;75090;-84
2021/12/13 08:33:01;;;;;;;;;;;17.40;65.30;;;;;;25903792;22;76233;-85
2021/12/13 08:43:31;;;;;;;;;;;17.40;65.30;;;;;;25908027;22;75861;-84
2021/12/13 08:53:49;;;;;;;;;;;17.40;65.00;;;;;;25905962;22;75952;-84
2021/12/13 09:04:10;;;;;;;;;;;17.40;64.70;;;;;;25907476;22;75699;-85
2021/12/13 09:14:15;;;;;;;;;;;17.30;64.70;;;;;;25906337;22;76147;-84
2021/12/13 09:24:40;;;;;;;;;;;17.30;64.60;;;;;;25976831;22;75940;-84
2021/12/13 09:35:14;;;;;;;;;;;17.20;64.50;;;;;;26023281;22;74868;-85
2021/12/13 09:45:35;;;;;;;;;;;17.20;64.60;;;;;;25999172;22;74839;-83
2021/12/13 09:55:47;;;;;;;;;;;17.20;64.60;;;;;;26007829;22;75933;-86
2021/12/13 10:06:00;;;;;;;;;;;17.10;64.80;;;;;;26029012;22;74420;-88
2021/12/13 10:16:13;;;;;;;;;;;17.10;64.80;;;;;;25731149;22;74608;-90
2021/12/13 10:26:18;;;;;;;;;;;17.00;64.90;;;;;;25658395;22;76668;-90
2021/12/13 10:36:28;;;;;;;;;;;17.00;65.00;;;;;;25681622;22;77691;-90
2021/12/13 10:46:36;;;;;;;;;;;16.90;65.10;;;;;;25669028;22;77754;-90
2021/12/13 10:56:47;;;;;;;;;;;17.00;65.10;;;;;;25654859;22;77317;-90
2021/12/13 11:06:56;;;;;;;;;;;16.90;65.30;;;;;;25656600;22;77933;-90
2021/12/13 11:17:07;;;;;;;;;;;17.10;65.40;;;;;;25654092;22;78651;-89
2021/12/13 11:27:14;;;;;;;;;;;17.20;65.50;;;;;;25654820;22;76969;-89
2021/12/13 11:37:37;;;;;;;;;;;17.20;65.60;;;;;;25656649;22;77383;-90
2021/12/13 11:47:42;;;;;;;;;;;17.30;65.60;;;;;;25658559;22;76952;-88
2021/12/13 11:58:04;;;;;;;;;;;17.30;65.70;;;;;;25656954;22;77193;-89
2021/12/13 12:08:14;;;;;;;;;;;17.30;65.80;;;;;;25656457;22;77923;-90
2021/12/13 12:18:18;;;;;;;;;;;17.20;65.90;;;;;;25655815;22;78860;-89
2021/12/13 12:28:29;;;;;;;;;;;17.20;66.00;;;;;;25658433;22;78533;-90
2021/12/13 12:38:41;;;;;;;;;;;17.10;65.90;;;;;;25655124;22;76870;-90
2021/12/13 12:48:47;;;;;;;;;;;17.10;66.10;;;;;;25653183;22;76823;-89
2021/12/13 12:58:59;;;;;;;;;;;17.00;66.10;;;;;;25653231;22;77737;-92
2021/12/13 13:09:07;;;;;;;;;;;17.00;66.20;;;;;;25652477;22;94164;-89
2021/12/13 13:19:21;;;;;;;;;;;16.90;66.20;;;;;;25651506;22;77913;-90
2021/12/13 13:29:24;;;;;;;;;;;16.90;66.30;;;;;;25652973;22;77921;-89
2021/12/13 13:39:35;;;;;;;;;;;16.90;66.30;;;;;;25652217;22;77955;-89
2021/12/13 13:49:39;;;;;;;;;;;16.90;66.40;;;;;;25654049;22;78030;-90
2021/12/13 13:59:43;;;;;;;;;;;16.90;66.40;;;;;;25657034;22;79012;-88
2021/12/13 14:09:45;;;;;;;;;;;16.90;66.50;;;;;;25656056;22;77897;-88
2021/12/13 14:19:51;;;;;;;;;;;16.80;66.40;;;;;;25654964;22;77605;-87
2021/12/13 14:30:10;;;;;;;;;;;16.90;66.70;;;;;;25577315;22;76406;-83
2021/12/13 14:44:23;;;;;;;;;;;16.90;63.50;;;;;;21091590;27;2472272;-88
2021/12/13 14:54:30;;;;;;;;;;;16.50;64.50;;;;;;21089191;27;76835;-80
